createdAt,value
2022-10-11T00:00:09.867Z,100.00
2022-10-11T00:02:37.125Z,100.00
2022-10-11T00:05:04.416Z,100.00
2022-10-11T00:07:31.460Z,100.00
2022-10-11T00:09:58.729Z,100.00
2022-10-11T00:12:25.700Z,100.00
2022-10-11T00:14:52.672Z,100.00
2022-10-11T00:17:19.972Z,100.00
2022-10-11T00:19:46.948Z,100.00
2022-10-11T00:22:14.193Z,100.00
2022-10-11T00:24:41.520Z,100.00
2022-10-11T00:27:08.528Z,100.00
2022-10-11T00:29:37.840Z,100.00
2022-10-11T00:32:05.234Z,100.00
2022-10-11T00:34:32.244Z,100.00
2022-10-11T00:36:59.203Z,100.00
2022-10-11T00:39:26.579Z,100.00
2022-10-11T00:41:53.677Z,100.00
2022-10-11T00:44:23.741Z,100.00
2022-10-11T00:47:13.389Z,100.00
2022-10-11T00:49:43.851Z,100.00
2022-10-11T00:52:31.871Z,100.00
2022-10-11T00:55:13.044Z,100.00
2022-10-11T00:57:44.430Z,100.00
2022-10-11T01:00:13.106Z,100.00
2022-10-11T01:02:41.110Z,100.00
2022-10-11T01:05:28.725Z,100.00
2022-10-11T01:07:58.779Z,100.00
2022-10-11T01:10:26.887Z,100.00
2022-10-11T01:13:19.582Z,100.00
2022-10-11T01:16:09.569Z,100.00
2022-10-11T01:19:30.775Z,100.00
2022-10-11T01:22:06.039Z,100.00
2022-10-11T01:24:57.765Z,100.00
2022-10-11T01:27:31.012Z,100.00
2022-10-11T01:30:05.842Z,100.00
2022-10-11T01:33:04.849Z,100.00
2022-10-11T01:52:42.499Z,100.00
2022-10-11T02:04:33.517Z,100.00
2022-10-11T02:07:06.253Z,100.00
2022-10-11T02:09:38.438Z,100.00
2022-10-11T02:12:09.232Z,100.00
2022-10-11T02:14:40.624Z,100.00
2022-10-11T02:17:11.889Z,100.00
2022-10-11T02:19:42.990Z,100.00
2022-10-11T02:22:16.024Z,100.00
2022-10-11T02:24:46.995Z,100.00
2022-10-11T02:27:14.263Z,100.00
2022-10-11T02:29:42.788Z,100.00
2022-10-11T02:32:10.828Z,100.00
2022-10-11T02:34:47.641Z,100.00
2022-10-11T02:37:18.111Z,100.00
2022-10-11T02:39:48.838Z,100.00
2022-10-11T02:42:26.448Z,100.00
2022-10-11T02:45:02.814Z,100.00
2022-10-11T02:47:31.622Z,100.00
2022-10-11T02:49:59.845Z,100.00
2022-10-11T02:52:26.845Z,100.00
2022-10-11T02:54:54.167Z,100.00
2022-10-11T02:57:21.272Z,100.00
2022-10-11T02:59:48.293Z,100.00
2022-10-11T03:02:15.566Z,100.00
2022-10-11T03:04:42.601Z,100.00
2022-10-11T03:07:09.582Z,100.00
2022-10-11T03:09:36.858Z,100.00
2022-10-11T03:12:04.068Z,100.00
2022-10-11T03:14:31.036Z,100.00
2022-10-11T03:17:17.310Z,100.00
2022-10-11T03:19:45.350Z,100.00
2022-10-11T03:22:12.629Z,100.00
2022-10-11T03:24:39.660Z,100.00
2022-10-11T03:27:06.670Z,100.00
2022-10-11T03:29:33.961Z,100.00
2022-10-11T03:32:00.957Z,100.00
2022-10-11T03:34:28.151Z,100.00
2022-10-11T03:36:55.474Z,100.00
2022-10-11T03:39:22.766Z,100.00
2022-10-11T03:41:49.809Z,100.00
2022-10-11T03:44:17.104Z,100.00
2022-10-11T03:46:44.108Z,100.00
2022-10-11T03:49:11.233Z,100.00
2022-10-11T03:51:38.564Z,100.00
2022-10-11T03:54:05.584Z,100.00
2022-10-11T03:56:32.655Z,100.00
2022-10-11T03:58:59.953Z,100.00
2022-10-11T04:01:27.009Z,100.00
2022-10-11T04:03:57.585Z,100.00
2022-10-11T04:06:24.594Z,100.00
2022-10-11T04:08:51.562Z,100.00
2022-10-11T04:11:18.858Z,100.00
2022-10-11T04:13:45.838Z,100.00
2022-10-11T04:16:12.896Z,100.00
2022-10-11T04:18:40.187Z,100.00
2022-10-11T04:21:07.234Z,100.00
2022-10-11T04:23:34.562Z,100.00
2022-10-11T04:26:06.610Z,100.00
2022-10-11T04:28:34.464Z,100.00
2022-10-11T04:31:04.189Z,100.00
2022-10-11T04:33:31.264Z,100.00
2022-10-11T04:35:58.367Z,100.00
2022-10-11T04:38:25.800Z,100.00
2022-10-11T04:40:53.230Z,100.00
2022-10-11T04:43:20.462Z,100.00
2022-10-11T04:45:48.488Z,100.00
2022-10-11T04:48:17.323Z,100.00
2022-10-11T04:50:44.931Z,100.00
2022-10-11T04:53:16.878Z,100.00
2022-10-11T04:55:43.866Z,100.00
2022-10-11T04:58:10.875Z,100.00
2022-10-11T05:00:38.218Z,100.00
2022-10-11T05:03:05.266Z,100.00
2022-10-11T05:05:32.246Z,100.00
2022-10-11T05:07:59.511Z,100.00
2022-10-11T05:10:26.466Z,100.00
2022-10-11T05:12:53.471Z,100.00
2022-10-11T05:15:20.801Z,100.00
2022-10-11T05:17:47.796Z,100.00
2022-10-11T05:20:14.911Z,100.00
2022-10-11T05:22:42.241Z,100.00
2022-10-11T05:25:09.367Z,100.00
2022-10-11T05:27:36.463Z,100.00
2022-10-11T05:30:05.246Z,100.00
2022-10-11T05:32:32.371Z,100.00
2022-10-11T05:34:59.359Z,100.00
2022-10-11T05:37:26.709Z,100.00
2022-10-11T05:39:53.986Z,100.00
2022-10-11T05:42:20.987Z,100.00
2022-10-11T05:44:48.275Z,100.00
2022-10-11T05:47:15.256Z,100.00
2022-10-11T05:49:42.453Z,100.00
2022-10-11T05:52:10.914Z,100.00
2022-10-11T05:54:37.933Z,100.00
2022-10-11T05:57:04.948Z,100.00
2022-10-11T05:59:32.367Z,100.00
2022-10-11T06:01:59.373Z,100.00
2022-10-11T06:04:27.038Z,100.00
2022-10-11T06:06:54.101Z,100.00
2022-10-11T06:09:21.140Z,100.00
2022-10-11T06:11:48.533Z,100.00
2022-10-11T06:14:15.498Z,100.00
2022-10-11T06:16:42.453Z,100.00
2022-10-11T06:19:09.850Z,100.00
2022-10-11T06:21:36.982Z,100.00
2022-10-11T06:24:04.497Z,100.00
2022-10-11T06:26:32.029Z,100.00
2022-10-11T06:28:59.095Z,100.00
2022-10-11T06:31:26.213Z,100.00
2022-10-11T06:33:53.512Z,100.00
2022-10-11T06:36:20.513Z,100.00
2022-10-11T06:38:47.566Z,100.00
2022-10-11T06:41:18.748Z,100.00
2022-10-11T06:43:46.301Z,100.00
2022-10-11T06:46:13.330Z,100.00
2022-10-11T06:48:42.135Z,100.00
2022-10-11T06:51:10.618Z,100.00
2022-10-11T06:53:37.916Z,100.00
2022-10-11T06:56:13.058Z,100.00
2022-10-11T06:58:40.528Z,100.00
2022-10-11T07:01:11.019Z,100.00
2022-10-11T07:03:38.101Z,100.00
2022-10-11T07:06:10.985Z,100.00
2022-10-11T07:08:38.689Z,100.00
2022-10-11T07:11:11.843Z,99.87
2022-10-11T07:13:40.115Z,100.00
2022-10-11T07:16:10.045Z,100.00
2022-10-11T07:18:37.532Z,99.56
2022-10-11T07:21:06.990Z,98.87
2022-10-11T07:23:34.487Z,99.71
2022-10-11T07:26:01.666Z,100.00
2022-10-11T07:28:30.476Z,96.33
2022-10-11T07:30:58.247Z,96.57
2022-10-11T07:33:25.328Z,96.32
2022-10-11T07:35:56.974Z,97.81
2022-10-11T07:38:23.972Z,97.66
2022-10-11T07:40:51.107Z,95.89
2022-10-11T07:43:18.489Z,95.14
2022-10-11T07:45:48.335Z,95.33
2022-10-11T07:48:15.424Z,95.03
2022-10-11T07:50:42.705Z,92.51
2022-10-11T07:53:10.008Z,91.08
2022-10-11T07:55:40.946Z,90.88
2022-10-11T07:58:12.320Z,89.08
2022-10-11T08:00:42.402Z,86.90
2022-10-11T08:03:10.504Z,87.34
2022-10-11T08:05:39.353Z,87.45
2022-10-11T08:08:06.356Z,83.87
2022-10-11T08:10:38.200Z,84.85
2022-10-11T08:13:06.146Z,85.75
2022-10-11T08:15:33.461Z,85.54
2022-10-11T08:18:00.595Z,83.36
2022-10-11T08:20:27.708Z,84.90
2022-10-11T08:23:16.651Z,85.29
2022-10-11T08:26:04.837Z,82.57
2022-10-11T08:28:52.248Z,81.91
2022-10-11T08:31:39.096Z,82.43
2022-10-11T08:34:26.532Z,83.58
2022-10-11T08:37:13.296Z,83.87
2022-10-11T08:40:01.254Z,85.10
2022-10-11T08:42:54.071Z,84.41
2022-10-11T08:45:50.861Z,84.90
2022-10-11T08:48:49.319Z,84.56
2022-10-11T08:51:48.546Z,86.29
2022-10-11T08:54:35.624Z,86.32
2022-10-11T08:57:05.440Z,85.06
2022-10-11T08:59:44.723Z,85.08
2022-10-11T09:02:17.302Z,84.70
2022-10-11T09:04:50.430Z,85.59
2022-10-11T09:07:32.887Z,83.19
2022-10-11T09:10:11.983Z,83.18
2022-10-11T09:13:02.008Z,82.98
2022-10-11T09:15:34.787Z,82.64
2022-10-11T09:18:42.969Z,80.52
2022-10-11T09:21:30.948Z,81.33
2022-10-11T09:24:17.354Z,80.73
2022-10-11T09:27:09.397Z,80.26
2022-10-11T09:29:48.820Z,77.86
2022-10-11T09:32:23.521Z,76.57
2022-10-11T09:34:59.732Z,77.83
2022-10-11T09:37:32.532Z,74.08
2022-10-11T09:40:22.653Z,76.81
2022-10-11T09:42:49.646Z,72.85
2022-10-11T09:45:19.763Z,75.81
2022-10-11T09:47:49.278Z,73.10
2022-10-11T09:50:19.976Z,73.87
2022-10-11T09:52:56.472Z,72.30
2022-10-11T09:55:32.971Z,70.87
2022-10-11T09:58:00.519Z,71.26
2022-10-11T10:00:32.298Z,71.73
2022-10-11T10:03:02.659Z,70.82
2022-10-11T10:05:35.537Z,72.58
2022-10-11T10:08:09.265Z,70.81
2022-10-11T10:10:38.464Z,69.58
2022-10-11T10:13:18.810Z,71.87
2022-10-11T10:15:48.445Z,67.85
2022-10-11T10:18:24.521Z,68.71
2022-10-11T10:20:54.895Z,72.45
2022-10-11T10:23:31.309Z,72.48
2022-10-11T10:26:21.085Z,73.96
2022-10-11T10:29:09.617Z,73.74
2022-10-11T10:32:08.767Z,72.68
2022-10-11T10:34:31.752Z,72.37
2022-10-11T10:37:48.066Z,72.28
2022-10-11T10:40:25.640Z,72.82
2022-10-11T10:42:52.721Z,73.48
2022-10-11T10:45:22.180Z,75.49
2022-10-11T10:47:55.054Z,73.83
2022-10-11T10:50:58.696Z,74.65
2022-10-11T10:53:37.172Z,74.86
2022-10-11T10:56:11.378Z,74.31
2022-10-11T10:59:18.978Z,75.95
2022-10-11T11:02:39.195Z,73.80
2022-10-11T11:05:25.450Z,73.76
2022-10-11T11:08:24.031Z,75.81
2022-10-11T11:11:18.769Z,74.69
2022-10-11T11:13:56.947Z,74.40
2022-10-11T11:16:32.087Z,74.75
2022-10-11T11:19:14.569Z,74.55
2022-10-11T11:21:50.100Z,74.21
2022-10-11T11:24:41.429Z,72.53
2022-10-11T11:27:11.820Z,72.39
2022-10-11T11:29:49.829Z,73.15
2022-10-11T11:32:48.185Z,74.60
2022-10-11T11:35:32.211Z,72.15
2022-10-11T11:38:06.476Z,71.94
2022-10-11T11:40:39.864Z,72.27
2022-10-11T11:43:27.942Z,71.39
2022-10-11T11:45:58.237Z,68.59
2022-10-11T11:48:26.625Z,68.58
2022-10-11T11:51:01.157Z,67.47
2022-10-11T11:54:08.345Z,67.15
2022-10-11T11:56:54.037Z,66.26
2022-10-11T11:59:48.746Z,67.09
2022-10-11T12:02:47.590Z,68.87
2022-10-11T12:05:19.645Z,69.46
2022-10-11T12:08:01.200Z,69.33
2022-10-11T12:10:46.570Z,69.40
2022-10-11T12:13:32.270Z,68.26
2022-10-11T12:16:15.497Z,69.11
2022-10-11T12:18:59.792Z,70.13
2022-10-11T12:21:29.661Z,68.78
2022-10-11T12:23:59.458Z,70.00
2022-10-11T12:26:29.404Z,71.02
2022-10-11T12:29:28.399Z,70.86
2022-10-11T12:31:59.061Z,70.96
2022-10-11T12:34:50.127Z,71.16
2022-10-11T12:37:17.439Z,71.83
2022-10-11T12:39:50.400Z,74.76
2022-10-11T12:42:32.765Z,74.78
2022-10-11T12:45:30.209Z,75.89
2022-10-11T12:48:06.277Z,76.96
2022-10-11T12:50:45.248Z,76.79
2022-10-11T12:54:21.607Z,71.22
2022-10-11T12:56:44.284Z,71.31
2022-10-11T12:59:19.923Z,67.79
2022-10-11T13:01:53.342Z,66.16
2022-10-11T13:04:23.432Z,66.18
2022-10-11T13:06:56.869Z,66.57
2022-10-11T13:09:32.256Z,65.15
2022-10-11T13:12:05.037Z,64.23
2022-10-11T13:14:37.597Z,65.07
2022-10-11T13:17:07.585Z,67.97
2022-10-11T13:19:37.348Z,68.91
2022-10-11T13:22:13.381Z,70.26
2022-10-11T13:24:40.953Z,70.95
2022-10-11T13:27:28.020Z,72.34
2022-10-11T13:29:59.486Z,73.86
2022-10-11T13:32:29.654Z,74.38
2022-10-11T13:35:01.574Z,73.71
2022-10-11T13:37:29.943Z,74.97
2022-10-11T13:39:57.702Z,74.38
2022-10-11T13:42:29.950Z,73.96
2022-10-11T13:44:58.224Z,74.05
2022-10-11T13:47:27.904Z,73.53
2022-10-11T13:50:34.593Z,71.75
2022-10-11T13:53:23.377Z,70.92
2022-10-11T13:55:56.828Z,70.23
2022-10-11T13:58:28.025Z,70.32
2022-10-11T14:00:58.828Z,71.08
2022-10-11T14:03:54.293Z,71.90
2022-10-11T14:06:21.552Z,76.03
2022-10-11T14:08:53.404Z,79.49
2022-10-11T14:11:38.774Z,81.44
2022-10-11T14:14:34.016Z,82.41
2022-10-11T14:17:25.969Z,83.27
2022-10-11T14:20:36.581Z,84.04
2022-10-11T14:23:03.914Z,85.45
2022-10-11T14:25:31.332Z,86.10
2022-10-11T14:27:59.248Z,85.46
2022-10-11T14:30:27.763Z,84.13
2022-10-11T14:32:57.102Z,84.26
2022-10-11T14:35:31.911Z,83.37
2022-10-11T14:37:59.404Z,83.49
2022-10-11T14:40:29.355Z,84.64
2022-10-11T14:42:56.996Z,84.75
2022-10-11T14:45:24.508Z,85.87
2022-10-11T14:47:51.938Z,87.11
2022-10-11T14:50:33.114Z,87.29
2022-10-11T14:53:00.815Z,87.74
2022-10-11T14:55:27.795Z,87.64
2022-10-11T14:57:56.294Z,89.26
2022-10-11T15:00:26.116Z,88.44
2022-10-11T15:02:54.328Z,89.44
2022-10-11T15:05:23.179Z,93.17
2022-10-11T15:07:50.968Z,96.25
2022-10-11T15:10:25.149Z,96.06
2022-10-11T15:12:54.004Z,92.78
2022-10-11T15:15:23.958Z,95.56
2022-10-11T15:17:59.093Z,97.42
2022-10-11T15:20:41.077Z,96.60
2022-10-11T15:23:09.843Z,97.18
2022-10-11T15:25:38.733Z,97.45
2022-10-11T15:28:06.246Z,99.22
2022-10-11T15:30:40.926Z,96.78
2022-10-11T15:33:09.092Z,95.63
2022-10-11T15:35:36.209Z,95.92
2022-10-11T15:38:03.456Z,95.63
2022-10-11T15:40:35.792Z,96.38
2022-10-11T15:43:03.815Z,98.64
2022-10-11T15:45:31.387Z,97.95
2022-10-11T15:47:59.178Z,98.80
2022-10-11T15:50:34.831Z,98.67
2022-10-11T15:53:07.188Z,99.21
2022-10-11T15:55:39.248Z,100.00
2022-10-11T15:58:09.829Z,100.00
2022-10-11T16:00:37.033Z,100.00
2022-10-11T16:03:04.386Z,100.00
2022-10-11T16:05:31.405Z,100.00
2022-10-11T16:07:58.698Z,100.00
2022-10-11T16:10:25.990Z,100.00
2022-10-11T16:12:52.978Z,100.00
2022-10-11T16:15:19.984Z,100.00
2022-10-11T16:17:47.380Z,100.00
2022-10-11T16:20:14.717Z,100.00
2022-10-11T16:22:42.214Z,100.00
2022-10-11T16:25:09.837Z,100.00
2022-10-11T16:27:36.885Z,100.00
2022-10-11T16:30:04.199Z,100.00
2022-10-11T16:32:33.133Z,100.00
2022-10-11T16:35:01.865Z,100.00
2022-10-11T16:37:28.921Z,100.00
2022-10-11T16:39:56.197Z,100.00
2022-10-11T16:42:23.241Z,100.00
2022-10-11T16:44:50.501Z,100.00
2022-10-11T16:47:18.681Z,100.00
2022-10-11T16:49:46.258Z,100.00
2022-10-11T16:52:14.185Z,100.00
2022-10-11T16:54:46.233Z,100.00
2022-10-11T16:57:15.559Z,100.00
2022-10-11T16:59:43.013Z,100.00
2022-10-11T17:02:18.591Z,100.00
2022-10-11T17:04:46.406Z,100.00
2022-10-11T17:07:13.595Z,100.00
2022-10-11T17:09:44.028Z,100.00
2022-10-11T17:12:13.710Z,100.00
2022-10-11T17:14:41.309Z,100.00
2022-10-11T17:17:09.965Z,100.00
2022-10-11T17:19:45.103Z,100.00
2022-10-11T17:22:16.557Z,100.00
2022-10-11T17:24:44.430Z,100.00
2022-10-11T17:27:11.590Z,100.00
2022-10-11T17:29:38.647Z,100.00
2022-10-11T17:32:06.132Z,100.00
2022-10-11T17:34:35.709Z,100.00
2022-10-11T17:37:02.970Z,100.00
2022-10-11T17:39:30.836Z,100.00
2022-10-11T17:41:57.901Z,100.00
2022-10-11T17:44:24.948Z,100.00
2022-10-11T17:46:52.488Z,100.00
2022-10-11T17:49:19.539Z,100.00
2022-10-11T17:51:46.572Z,100.00
2022-10-11T17:54:14.295Z,100.00
2022-10-11T17:56:41.909Z,100.00
2022-10-11T17:59:18.197Z,100.00
2022-10-11T18:01:45.476Z,100.00
2022-10-11T18:04:16.733Z,100.00
2022-10-11T18:06:45.930Z,100.00
2022-10-11T18:09:15.150Z,100.00
2022-10-11T18:11:42.567Z,100.00
2022-10-11T18:14:09.624Z,100.00
2022-10-11T18:16:37.542Z,100.00
2022-10-11T18:19:07.155Z,100.00
2022-10-11T18:21:35.193Z,100.00
2022-10-11T18:24:05.708Z,100.00
2022-10-11T18:26:32.763Z,100.00
2022-10-11T18:29:00.225Z,100.00
2022-10-11T18:31:29.486Z,100.00
2022-10-11T18:33:57.045Z,100.00
2022-10-11T18:36:26.767Z,100.00
2022-10-11T18:39:04.885Z,100.00
2022-10-11T18:41:32.765Z,100.00
2022-10-11T18:44:02.226Z,100.00
2022-10-11T18:46:29.793Z,100.00
2022-10-11T18:48:58.267Z,100.00
2022-10-11T18:51:36.453Z,100.00
2022-10-11T18:54:04.318Z,100.00
2022-10-11T18:56:32.291Z,100.00
2022-10-11T18:59:00.198Z,100.00
2022-10-11T19:01:32.360Z,100.00
2022-10-11T19:04:01.408Z,100.00
2022-10-11T19:06:40.476Z,100.00
2022-10-11T19:09:17.796Z,100.00
2022-10-11T19:11:44.939Z,100.00
2022-10-11T19:14:16.791Z,100.00
2022-10-11T19:16:49.076Z,100.00
2022-10-11T19:19:17.847Z,100.00
2022-10-11T19:21:49.000Z,100.00
2022-10-11T19:24:17.770Z,100.00
2022-10-11T19:26:45.035Z,100.00
2022-10-11T19:29:20.552Z,100.00
2022-10-11T19:31:53.148Z,100.00
2022-10-11T19:34:20.978Z,100.00
2022-10-11T19:36:50.759Z,100.00
2022-10-11T19:39:21.733Z,100.00
2022-10-11T19:41:49.033Z,100.00
2022-10-11T19:44:16.407Z,100.00
2022-10-11T19:46:51.387Z,100.00
2022-10-11T19:49:22.641Z,100.00
2022-10-11T19:51:49.745Z,100.00
2022-10-11T19:54:17.133Z,100.00
2022-10-11T19:56:44.798Z,100.00
2022-10-11T19:59:12.713Z,100.00
2022-10-11T20:01:40.272Z,100.00
2022-10-11T20:04:15.421Z,100.00
2022-10-11T20:06:49.854Z,100.00
2022-10-11T20:09:29.184Z,100.00
2022-10-11T20:11:57.173Z,100.00
2022-10-11T20:14:24.495Z,100.00
2022-10-11T20:16:51.533Z,100.00
2022-10-11T20:19:18.832Z,100.00
2022-10-11T20:21:46.447Z,100.00
2022-10-11T20:24:13.421Z,100.00
2022-10-11T20:26:40.423Z,100.00
2022-10-11T20:29:07.767Z,100.00
2022-10-11T20:31:38.167Z,100.00
2022-10-11T20:34:07.382Z,100.00
2022-10-11T20:36:36.028Z,100.00
2022-10-11T20:39:04.662Z,100.00
2022-10-11T20:41:36.872Z,100.00
2022-10-11T20:44:04.639Z,100.00
2022-10-11T20:46:37.678Z,100.00
2022-10-11T20:49:07.049Z,100.00
2022-10-11T20:51:35.842Z,100.00
2022-10-11T20:54:04.191Z,100.00
2022-10-11T20:56:32.039Z,100.00
2022-10-11T20:58:59.618Z,100.00
2022-10-11T21:01:30.478Z,100.00
2022-10-11T21:03:59.090Z,100.00
2022-10-11T21:06:27.085Z,100.00
2022-10-11T21:08:59.037Z,100.00
2022-10-11T21:11:27.657Z,100.00
2022-10-11T21:13:58.753Z,100.00
2022-10-11T21:16:26.030Z,100.00
2022-10-11T21:18:55.250Z,100.00
2022-10-11T21:21:24.046Z,100.00
2022-10-11T21:23:55.448Z,100.00
2022-10-11T21:26:22.928Z,100.00
2022-10-11T21:28:50.375Z,100.00
2022-10-11T21:31:18.893Z,100.00
2022-10-11T21:33:46.235Z,100.00
2022-10-11T21:36:15.995Z,100.00
2022-10-11T21:38:43.510Z,100.00
2022-10-11T21:41:13.554Z,100.00
2022-10-11T21:43:40.610Z,100.00
2022-10-11T21:46:21.238Z,100.00
2022-10-11T21:48:52.019Z,100.00
2022-10-11T21:51:23.151Z,100.00
2022-10-11T21:53:50.938Z,100.00
2022-10-11T21:56:18.263Z,100.00
2022-10-11T21:58:48.769Z,100.00
2022-10-11T22:01:17.226Z,100.00
2022-10-11T22:03:45.088Z,100.00
2022-10-11T22:06:12.287Z,100.00
2022-10-11T22:08:39.754Z,100.00
2022-10-11T22:11:08.682Z,100.00
2022-10-11T22:13:35.910Z,100.00
2022-10-11T22:16:07.672Z,100.00
2022-10-11T22:18:35.194Z,100.00
2022-10-11T22:21:13.744Z,100.00
2022-10-11T22:23:42.330Z,100.00
2022-10-11T22:26:18.429Z,100.00
2022-10-11T22:28:48.841Z,100.00
2022-10-11T22:31:17.330Z,100.00
2022-10-11T22:36:13.838Z,100.00
2022-10-11T22:38:42.347Z,100.00
2022-10-11T22:41:10.113Z,100.00
2022-10-11T22:43:37.832Z,100.00
2022-10-11T22:46:05.546Z,100.00
2022-10-11T22:48:32.524Z,100.00
2022-10-11T22:51:00.099Z,100.00
2022-10-11T22:53:27.179Z,100.00
2022-10-11T22:55:54.227Z,100.00
2022-10-11T22:58:21.538Z,100.00
2022-10-11T23:00:48.537Z,100.00
2022-10-11T23:03:17.061Z,100.00
2022-10-11T23:05:44.361Z,100.00
2022-10-11T23:08:11.501Z,100.00
2022-10-11T23:10:39.625Z,100.00
2022-10-11T23:13:06.986Z,100.00
2022-10-11T23:15:33.973Z,100.00
2022-10-11T23:18:03.666Z,100.00
2022-10-11T23:20:30.944Z,100.00
2022-10-11T23:22:57.931Z,100.00
2022-10-11T23:25:25.000Z,100.00
2022-10-11T23:27:52.371Z,100.00
2022-10-11T23:30:19.395Z,100.00
2022-10-11T23:32:46.401Z,100.00
2022-10-11T23:35:13.767Z,100.00
2022-10-11T23:37:40.982Z,100.00
2022-10-11T23:40:08.657Z,100.00
2022-10-11T23:42:35.942Z,100.00
2022-10-11T23:45:03.378Z,100.00
2022-10-11T23:47:30.434Z,100.00
2022-10-11T23:49:57.721Z,100.00
2022-10-11T23:52:24.717Z,100.00
2022-10-11T23:54:51.685Z,100.00
2022-10-11T23:57:18.997Z,100.00
2022-10-11T23:59:46.583Z,100.00
